Time;durP1;ratioP1;P1;durP2;ratioP2;P2;SDS_P1;SDS_P2;PMS_P1;PMS_P2;Temp;Humidity;BMP_temperature;BMP_pressure;BME280_temperature;BME280_humidity;BME280_pressure;Samples;Min_cycle;Max_cycle;Signal;HPM_P1;HPM_P2
2022/06/26 00:02:11;;;;;;;4.25;1.30;;;;;;;;;;5096334;28;20476;-91
2022/06/26 00:04:37;;;;;;;2.38;1.50;;;;;;;;;;5080060;28;20028;-92
2022/06/26 00:07:04;;;;;;;3.03;1.15;;;;;;;;;;5097826;28;20024;-92
2022/06/26 00:09:30;;;;;;;2.67;1.40;;;;;;;;;;5079671;28;20024;-91
2022/06/26 00:11:56;;;;;;;2.95;1.83;;;;;;;;;;5078109;28;20036;-91
2022/06/26 00:14:22;;;;;;;3.03;1.20;;;;;;;;;;5076705;28;20020;-91
2022/06/26 00:16:48;;;;;;;2.50;1.60;;;;;;;;;;5094653;28;20162;-90
2022/06/26 00:19:15;;;;;;;2.42;1.27;;;;;;;;;;5076613;28;20066;-92
2022/06/26 00:21:41;;;;;;;3.33;1.55;;;;;;;;;;5077068;28;20028;-91
2022/06/26 00:24:07;;;;;;;3.25;1.50;;;;;;;;;;5059923;28;20035;-93
2022/06/26 00:26:33;;;;;;;5.22;1.50;;;;;;;;;;5076814;28;20025;-93
2022/06/26 00:28:59;;;;;;;2.10;1.52;;;;;;;;;;5059195;28;20020;-93
2022/06/26 00:31:25;;;;;;;4.95;1.77;;;;;;;;;;5077119;28;20034;-92
2022/06/26 00:33:51;;;;;;;2.78;1.85;;;;;;;;;;5077562;28;20016;-92
2022/06/26 00:36:22;;;;;;;3.47;1.48;;;;;;;;;;5095693;28;20089;-94
2022/06/26 00:38:48;;;;;;;3.03;1.70;;;;;;;;;;5095292;28;20131;-92
2022/06/26 00:41:26;;;;;;;2.13;1.38;;;;;;;;;;5077134;28;20491;-91
2022/06/26 00:43:52;;;;;;;3.28;1.52;;;;;;;;;;5080122;28;20120;-92
2022/06/26 00:46:18;;;;;;;3.38;1.75;;;;;;;;;;5096954;28;20024;-91
2022/06/26 00:48:44;;;;;;;5.90;1.90;;;;;;;;;;5094954;28;20028;-92
2022/06/26 00:51:10;;;;;;;6.30;1.15;;;;;;;;;;5077858;28;20024;-92
2022/06/26 00:53:36;;;;;;;4.38;1.50;;;;;;;;;;5077668;28;20020;-90
2022/06/26 00:56:03;;;;;;;2.47;1.40;;;;;;;;;;5078474;28;20119;-92
2022/06/26 00:58:29;;;;;;;1.25;1.15;;;;;;;;;;5076027;28;20024;-91
2022/06/26 01:00:55;;;;;;;2.22;1.10;;;;;;;;;;5075124;28;20078;-91
2022/06/26 01:03:22;;;;;;;6.38;1.50;;;;;;;;;;5058816;28;20036;-92
2022/06/26 01:05:48;;;;;;;4.78;1.10;;;;;;;;;;5098636;28;20464;-91
2022/06/26 01:08:14;;;;;;;3.35;1.30;;;;;;;;;;5079679;28;20119;-90
2022/06/26 01:10:40;;;;;;;2.65;1.00;;;;;;;;;;5103991;28;20012;-90
2022/06/26 01:13:07;;;;;;;2.63;1.20;;;;;;;;;;5088546;28;20515;-90
2022/06/26 01:15:35;;;;;;;3.28;1.30;;;;;;;;;;5098350;28;20425;-93
2022/06/26 01:18:01;;;;;;;2.33;1.42;;;;;;;;;;5098072;28;20050;-91
2022/06/26 01:20:27;;;;;;;2.88;1.13;;;;;;;;;;5097772;28;20031;-91
2022/06/26 01:23:00;;;;;;;5.22;1.42;;;;;;;;;;5095540;28;20028;-91
2022/06/26 01:25:27;;;;;;;4.00;1.63;;;;;;;;;;5100189;28;20092;-91
2022/06/26 01:28:13;;;;;;;1.45;1.35;;;;;;;;;;5098361;28;20024;-91
2022/06/26 01:30:39;;;;;;;3.20;1.60;;;;;;;;;;5105362;28;20020;-91
2022/06/26 01:33:06;;;;;;;1.50;1.05;;;;;;;;;;5085649;28;20092;-91
2022/06/26 01:35:32;;;;;;;6.85;1.55;;;;;;;;;;5086327;28;20024;-92
2022/06/26 01:38:15;;;;;;;5.00;1.58;;;;;;;;;;5100304;28;20019;-91
2022/06/26 01:40:42;;;;;;;3.65;1.95;;;;;;;;;;5082707;28;20066;-90
2022/06/26 01:43:08;;;;;;;2.10;1.35;;;;;;;;;;5092267;28;20023;-91
2022/06/26 01:45:41;;;;;;;2.10;1.40;;;;;;;;;;5103120;28;20043;-92
2022/06/26 01:48:07;;;;;;;2.50;1.30;;;;;;;;;;5110307;28;20024;-93
2022/06/26 01:50:33;;;;;;;1.80;1.40;;;;;;;;;;5095187;28;20054;-91
2022/06/26 01:52:59;;;;;;;2.80;1.70;;;;;;;;;;5087843;28;20478;-91
2022/06/26 01:55:25;;;;;;;2.10;1.42;;;;;;;;;;5105440;28;20030;-90
2022/06/26 01:57:52;;;;;;;2.95;1.50;;;;;;;;;;5116755;28;20036;-93
2022/06/26 02:00:18;;;;;;;5.35;1.55;;;;;;;;;;5100956;28;20403;-91
2022/06/26 02:02:44;;;;;;;5.72;2.00;;;;;;;;;;5100406;28;20036;-90
2022/06/26 02:05:10;;;;;;;2.63;2.17;;;;;;;;;;5100762;28;20000;-93
2022/06/26 02:07:36;;;;;;;3.63;2.38;;;;;;;;;;5099869;28;20024;-89
2022/06/26 02:15:31;;;;;;;6.72;1.98;;;;;;;;;;5102284;28;20032;-89
2022/06/26 02:17:57;;;;;;;3.78;2.10;;;;;;;;;;5096494;28;20088;-89
2022/06/26 02:20:23;;;;;;;1.98;1.55;;;;;;;;;;5097048;28;20028;-90
2022/06/26 02:22:49;;;;;;;3.90;1.90;;;;;;;;;;5114534;28;20012;-89
2022/06/26 02:25:15;;;;;;;4.90;1.88;;;;;;;;;;5094116;28;20115;-89
2022/06/26 02:27:41;;;;;;;1.83;1.55;;;;;;;;;;5086649;28;20032;-90
2022/06/26 02:30:07;;;;;;;1.55;1.40;;;;;;;;;;5082494;28;20550;-90
2022/06/26 02:32:33;;;;;;;3.10;1.42;;;;;;;;;;5081815;28;20030;-90
2022/06/26 02:34:59;;;;;;;2.50;1.20;;;;;;;;;;5089368;28;20025;-91
2022/06/26 02:37:25;;;;;;;3.92;1.40;;;;;;;;;;5108335;28;20016;-89
2022/06/26 02:39:51;;;;;;;1.80;1.70;;;;;;;;;;5093941;28;20079;-90
2022/06/26 02:42:17;;;;;;;9.23;1.60;;;;;;;;;;5097831;28;20442;-91
2022/06/26 02:44:44;;;;;;;2.13;1.42;;;;;;;;;;5076209;28;20043;-92
2022/06/26 02:47:10;;;;;;;2.10;1.40;;;;;;;;;;5078327;28;20078;-90
2022/06/26 02:49:36;;;;;;;2.88;1.67;;;;;;;;;;5078441;28;20020;-90
2022/06/26 02:52:02;;;;;;;3.00;1.40;;;;;;;;;;5078286;28;20534;-91
2022/06/26 02:54:28;;;;;;;3.15;1.40;;;;;;;;;;5078128;28;20030;-91
2022/06/26 02:56:54;;;;;;;2.67;1.30;;;;;;;;;;5096455;28;20016;-91
2022/06/26 02:59:20;;;;;;;3.38;1.45;;;;;;;;;;5078271;28;20342;-91
2022/06/26 03:01:46;;;;;;;3.80;1.20;;;;;;;;;;5078685;28;20028;-91
2022/06/26 03:04:12;;;;;;;3.08;1.65;;;;;;;;;;5096961;28;20028;-90
2022/06/26 03:06:38;;;;;;;4.93;1.70;;;;;;;;;;5078632;28;20373;-90
2022/06/26 03:09:04;;;;;;;2.85;1.60;;;;;;;;;;5079252;28;20078;-91
2022/06/26 03:11:30;;;;;;;7.28;1.70;;;;;;;;;;5097327;28;20023;-92
2022/06/26 03:13:56;;;;;;;5.28;1.58;;;;;;;;;;5078663;28;20055;-92
2022/06/26 03:16:22;;;;;;;2.67;1.90;;;;;;;;;;5096983;28;20020;-91
2022/06/26 03:18:48;;;;;;;4.97;1.52;;;;;;;;;;5096880;28;20016;-91
2022/06/26 03:21:15;;;;;;;5.85;1.58;;;;;;;;;;5097293;28;20032;-92
2022/06/26 03:26:25;;;;;;;2.50;1.38;;;;;;;;;;5097169;28;20051;-90
2022/06/26 03:28:51;;;;;;;3.55;1.77;;;;;;;;;;5078544;28;20476;-92
2022/06/26 03:31:17;;;;;;;1.73;1.60;;;;;;;;;;5078499;28;20038;-89
2022/06/26 03:33:43;;;;;;;1.80;1.50;;;;;;;;;;5078431;28;20059;-92
2022/06/26 03:36:09;;;;;;;2.17;1.55;;;;;;;;;;5077130;28;20435;-91
2022/06/26 03:38:36;;;;;;;7.47;1.90;;;;;;;;;;5095622;28;20406;-91
2022/06/26 03:41:02;;;;;;;2.70;1.30;;;;;;;;;;5077572;28;20035;-90
2022/06/26 03:43:28;;;;;;;4.80;1.35;;;;;;;;;;5095565;28;20026;-90
2022/06/26 03:45:54;;;;;;;1.90;1.70;;;;;;;;;;5077337;28;20020;-91
2022/06/26 03:48:20;;;;;;;3.75;1.80;;;;;;;;;;5077644;28;20476;-90
2022/06/26 03:50:46;;;;;;;2.60;1.67;;;;;;;;;;5077095;28;20026;-91
2022/06/26 03:53:12;;;;;;;2.88;1.65;;;;;;;;;;5077114;28;20020;-91
2022/06/26 03:55:38;;;;;;;2.03;1.83;;;;;;;;;;5076440;28;20115;-90
2022/06/26 03:58:04;;;;;;;5.28;2.20;;;;;;;;;;5077079;28;20463;-88
2022/06/26 04:00:30;;;;;;;5.00;1.58;;;;;;;;;;5076864;28;20032;-89
2022/06/26 04:02:56;;;;;;;4.20;1.63;;;;;;;;;;5076795;28;20046;-91
2022/06/26 04:05:22;;;;;;;5.47;1.50;;;;;;;;;;5078190;28;20024;-91
2022/06/26 04:07:48;;;;;;;7.47;2.00;;;;;;;;;;5077133;28;20024;-93
2022/06/26 04:10:15;;;;;;;1.70;1.60;;;;;;;;;;5095043;28;20396;-93
2022/06/26 04:12:41;;;;;;;1.90;1.27;;;;;;;;;;5095391;28;20024;-92
2022/06/26 04:15:07;;;;;;;3.25;1.75;;;;;;;;;;5095238;28;20035;-93
2022/06/26 04:17:33;;;;;;;2.83;1.73;;;;;;;;;;5077837;28;20020;-92
2022/06/26 04:19:59;;;;;;;5.32;1.63;;;;;;;;;;5077490;28;20373;-92
2022/06/26 04:22:25;;;;;;;5.22;1.77;;;;;;;;;;5095392;28;20470;-93
2022/06/26 04:24:51;;;;;;;5.88;1.55;;;;;;;;;;5089888;28;20119;-93
2022/06/26 04:27:18;;;;;;;1.75;1.50;;;;;;;;;;5076918;28;20024;-93
2022/06/26 04:29:44;;;;;;;4.38;1.55;;;;;;;;;;5077053;28;20499;-92
2022/06/26 04:32:10;;;;;;;2.97;1.75;;;;;;;;;;5076569;28;20515;-92
2022/06/26 04:34:36;;;;;;;7.22;1.58;;;;;;;;;;5076541;28;20111;-91
2022/06/26 04:37:02;;;;;;;3.75;1.90;;;;;;;;;;5095180;28;20020;-92
2022/06/26 04:39:28;;;;;;;4.13;1.55;;;;;;;;;;5076789;28;20037;-93
2022/06/26 04:41:54;;;;;;;3.80;1.65;;;;;;;;;;5076733;28;20020;-92
2022/06/26 04:44:20;;;;;;;3.25;1.60;;;;;;;;;;5094473;28;20079;-92
2022/06/26 04:46:49;;;;;;;3.72;1.52;;;;;;;;;;5094783;28;20109;-92
2022/06/26 04:49:15;;;;;;;3.03;1.52;;;;;;;;;;5094840;28;20226;-94
2022/06/26 04:51:41;;;;;;;4.20;1.88;;;;;;;;;;5094768;28;20040;-92
2022/06/26 04:54:10;;;;;;;3.15;2.00;;;;;;;;;;5094533;28;20027;-92
2022/06/26 04:56:37;;;;;;;2.78;1.88;;;;;;;;;;5094467;28;20387;-92
2022/06/26 04:59:04;;;;;;;3.17;1.73;;;;;;;;;;5076115;28;20165;-92
2022/06/26 05:01:30;;;;;;;3.92;2.17;;;;;;;;;;5076491;28;20024;-91
2022/06/26 05:03:56;;;;;;;6.00;1.77;;;;;;;;;;5094169;28;20522;-91
2022/06/26 05:06:23;;;;;;;3.47;2.03;;;;;;;;;;5094720;28;20024;-92
2022/06/26 05:08:49;;;;;;;2.70;1.95;;;;;;;;;;5083119;28;20031;-92
2022/06/26 05:11:15;;;;;;;6.28;1.73;;;;;;;;;;5068043;28;20031;-91
2022/06/26 05:13:41;;;;;;;2.47;1.55;;;;;;;;;;5075997;28;20028;-90
2022/06/26 05:16:08;;;;;;;3.28;1.63;;;;;;;;;;5093694;28;20027;-91
2022/06/26 05:18:34;;;;;;;3.15;2.22;;;;;;;;;;5094079;28;20016;-92
2022/06/26 05:21:00;;;;;;;6.43;1.77;;;;;;;;;;5074998;28;20032;-92
2022/06/26 05:23:26;;;;;;;3.53;1.73;;;;;;;;;;5094542;28;20075;-92
2022/06/26 05:25:52;;;;;;;3.60;1.83;;;;;;;;;;5079603;28;20020;-91
2022/06/26 05:28:22;;;;;;;4.10;1.88;;;;;;;;;;5097494;28;20022;-92
2022/06/26 05:30:50;;;;;;;2.08;1.30;;;;;;;;;;5112669;28;20012;-93
2022/06/26 05:33:16;;;;;;;2.40;1.50;;;;;;;;;;5075184;28;20044;-90
2022/06/26 05:35:42;;;;;;;4.28;1.40;;;;;;;;;;5076374;28;20063;-90
2022/06/26 05:38:08;;;;;;;3.72;2.00;;;;;;;;;;5080600;28;20035;-92
2022/06/26 05:40:35;;;;;;;1.60;1.50;;;;;;;;;;5080814;28;20024;-91
2022/06/26 05:43:01;;;;;;;4.63;1.75;;;;;;;;;;5076020;28;20031;-92
2022/06/26 05:45:27;;;;;;;2.40;1.73;;;;;;;;;;5081465;28;20020;-91
2022/06/26 05:47:53;;;;;;;4.95;1.77;;;;;;;;;;5080824;28;20111;-91
2022/06/26 05:50:20;;;;;;;4.18;1.65;;;;;;;;;;5107637;28;20035;-91
2022/06/26 05:52:47;;;;;;;3.13;1.67;;;;;;;;;;5100815;28;20506;-92
2022/06/26 05:55:14;;;;;;;7.25;2.53;;;;;;;;;;5077402;28;20031;-91
2022/06/26 05:57:40;;;;;;;1.88;1.60;;;;;;;;;;5093819;28;20497;-89
2022/06/26 06:00:07;;;;;;;3.10;1.67;;;;;;;;;;5074496;28;20020;-91
2022/06/26 06:02:34;;;;;;;3.22;2.40;;;;;;;;;;5075423;28;20032;-90
2022/06/26 06:05:00;;;;;;;2.60;2.13;;;;;;;;;;5074355;28;20090;-92
2022/06/26 06:07:27;;;;;;;3.90;2.90;;;;;;;;;;5078022;28;20020;-92
2022/06/26 06:09:56;;;;;;;2.95;2.60;;;;;;;;;;5063767;28;20474;-91
2022/06/26 06:12:25;;;;;;;3.13;2.55;;;;;;;;;;5081649;28;20024;-92
2022/06/26 06:14:51;;;;;;;8.80;2.60;;;;;;;;;;5063089;28;20052;-91
2022/06/26 06:17:35;;;;;;;4.13;3.13;;;;;;;;;;5056149;28;20435;-92
2022/06/26 06:20:05;;;;;;;3.25;2.95;;;;;;;;;;5069724;28;20027;-90
2022/06/26 06:22:31;;;;;;;4.05;2.75;;;;;;;;;;5089362;28;20020;-91
2022/06/26 06:24:57;;;;;;;3.20;2.83;;;;;;;;;;5080041;28;20035;-91
2022/06/26 06:27:23;;;;;;;3.55;2.80;;;;;;;;;;5081436;28;20027;-91
2022/06/26 06:29:50;;;;;;;4.80;2.63;;;;;;;;;;5079791;28;20028;-91
2022/06/26 06:32:16;;;;;;;3.92;3.03;;;;;;;;;;5104988;28;20054;-91
2022/06/26 06:34:42;;;;;;;4.45;3.20;;;;;;;;;;5081320;28;20024;-89
2022/06/26 06:37:09;;;;;;;3.63;2.83;;;;;;;;;;5079820;28;20107;-91
2022/06/26 06:39:35;;;;;;;4.18;2.22;;;;;;;;;;5097646;28;20016;-90
2022/06/26 06:42:01;;;;;;;3.08;1.85;;;;;;;;;;5080296;28;20063;-89
2022/06/26 06:44:27;;;;;;;5.28;2.20;;;;;;;;;;5098079;28;20031;-90
2022/06/26 06:46:53;;;;;;;4.07;1.95;;;;;;;;;;5080550;28;20024;-91
2022/06/26 06:49:20;;;;;;;11.60;2.80;;;;;;;;;;5098483;28;20031;-91
2022/06/26 06:51:46;;;;;;;4.63;2.88;;;;;;;;;;5097741;28;20032;-90
2022/06/26 06:54:12;;;;;;;4.40;3.20;;;;;;;;;;5098285;28;20107;-90
2022/06/26 06:56:38;;;;;;;7.18;3.65;;;;;;;;;;5096575;28;20081;-92
2022/06/26 06:59:04;;;;;;;4.13;3.75;;;;;;;;;;5101886;28;20016;-94
2022/06/26 07:01:31;;;;;;;3.90;3.47;;;;;;;;;;5120884;28;20081;-92
2022/06/26 07:03:57;;;;;;;4.80;4.30;;;;;;;;;;5101589;28;20020;-93
2022/06/26 07:06:23;;;;;;;4.60;3.70;;;;;;;;;;5120221;28;20035;-93
2022/06/26 07:08:50;;;;;;;5.43;4.10;;;;;;;;;;5120563;28;20024;-93
2022/06/26 07:11:16;;;;;;;4.47;4.03;;;;;;;;;;5120485;28;20046;-96
2022/06/26 07:13:42;;;;;;;4.18;3.88;;;;;;;;;;5103488;28;20024;-94
2022/06/26 07:16:08;;;;;;;4.93;4.32;;;;;;;;;;5103625;28;20033;-95
2022/06/26 07:18:34;;;;;;;4.43;3.97;;;;;;;;;;5119647;28;20020;-96
2022/06/26 07:21:01;;;;;;;4.35;3.42;;;;;;;;;;5120673;28;20023;-95
2022/06/26 07:23:26;;;;;;;5.18;3.78;;;;;;;;;;5104434;28;20040;-95
2022/06/26 07:25:53;;;;;;;3.67;3.30;;;;;;;;;;5104461;28;20034;-96
2022/06/26 07:28:19;;;;;;;3.95;3.53;;;;;;;;;;5104058;28;20012;-94
2022/06/26 07:36:09;;;;;;;5.35;2.53;;;;;;;;;;5121354;28;20022;-95
2022/06/26 07:44:43;;;;;;;3.95;2.45;;;;;;;;;;5121285;28;20044;-93
2022/06/26 07:47:09;;;;;;;2.40;2.20;;;;;;;;;;5120461;28;20035;-95
2022/06/26 07:49:35;;;;;;;3.83;1.85;;;;;;;;;;5103834;28;20015;-96
2022/06/26 07:52:01;;;;;;;4.60;2.00;;;;;;;;;;5120635;28;20083;-95
2022/06/26 07:54:27;;;;;;;3.78;1.08;;;;;;;;;;5103824;28;20004;-93
2022/06/26 07:56:53;;;;;;;2.15;1.00;;;;;;;;;;5120881;28;20016;-96
2022/06/26 07:59:20;;;;;;;1.35;1.25;;;;;;;;;;5121138;28;20008;-93
2022/06/26 08:01:46;;;;;;;1.20;1.10;;;;;;;;;;5103489;28;20054;-94
2022/06/26 08:04:12;;;;;;;1.08;0.98;;;;;;;;;;5103678;28;20016;-94
2022/06/26 08:06:38;;;;;;;1.75;1.00;;;;;;;;;;5102451;28;20055;-92
2022/06/26 08:09:04;;;;;;;1.52;1.20;;;;;;;;;;5100895;28;20028;-91
2022/06/26 08:11:30;;;;;;;1.85;1.42;;;;;;;;;;5098920;28;20047;-94
2022/06/26 08:13:56;;;;;;;1.35;1.25;;;;;;;;;;5098473;28;20082;-91
2022/06/26 08:16:22;;;;;;;3.30;1.10;;;;;;;;;;5099816;28;20072;-94
2022/06/26 08:18:48;;;;;;;1.52;1.00;;;;;;;;;;5116865;28;20004;-92
2022/06/26 08:23:58;;;;;;;1.80;1.20;;;;;;;;;;5115249;28;20038;-92
2022/06/26 08:26:24;;;;;;;2.92;1.30;;;;;;;;;;5097232;28;20040;-91
2022/06/26 08:28:51;;;;;;;4.57;1.17;;;;;;;;;;5110387;28;20054;-92
2022/06/26 08:31:17;;;;;;;1.73;1.27;;;;;;;;;;5097023;28;20036;-91
2022/06/26 08:33:43;;;;;;;1.90;0.88;;;;;;;;;;5118639;28;20043;-91
2022/06/26 08:36:09;;;;;;;1.33;1.10;;;;;;;;;;5117179;28;20008;-96
2022/06/26 08:38:35;;;;;;;1.40;1.13;;;;;;;;;;5100253;28;20047;-95
2022/06/26 08:41:02;;;;;;;1.83;0.90;;;;;;;;;;5100143;28;20033;-96
2022/06/26 08:43:28;;;;;;;1.40;0.90;;;;;;;;;;5099749;28;20027;-94
2022/06/26 08:45:54;;;;;;;2.10;1.00;;;;;;;;;;5115910;28;20019;-95
2022/06/26 08:48:21;;;;;;;2.10;0.70;;;;;;;;;;5114738;28;20016;-94
2022/06/26 08:50:47;;;;;;;1.58;0.80;;;;;;;;;;5115895;28;20028;-95
2022/06/26 08:53:15;;;;;;;0.70;0.70;;;;;;;;;;5096352;28;20496;-94
2022/06/26 08:55:42;;;;;;;1.98;0.90;;;;;;;;;;5095316;28;20020;-94
2022/06/26 08:58:08;;;;;;;1.70;0.70;;;;;;;;;;5111247;28;20027;-95
2022/06/26 09:00:34;;;;;;;1.60;0.98;;;;;;;;;;5092433;28;20024;-94
2022/06/26 09:03:00;;;;;;;1.58;0.80;;;;;;;;;;5096002;28;20647;-93
2022/06/26 09:05:26;;;;;;;1.10;0.60;;;;;;;;;;5107185;28;20015;-92
2022/06/26 09:07:53;;;;;;;1.00;0.80;;;;;;;;;;5092943;28;20036;-91
2022/06/26 09:10:19;;;;;;;1.13;0.80;;;;;;;;;;5105461;28;20020;-89
2022/06/26 09:12:52;;;;;;;2.25;0.60;;;;;;;;;;5082716;28;20028;-92
2022/06/26 09:15:20;;;;;;;0.90;0.85;;;;;;;;;;5089521;28;20027;-90
2022/06/26 09:18:00;;;;;;;0.90;0.70;;;;;;;;;;5084846;28;20027;-92
2022/06/26 09:20:26;;;;;;;2.47;0.80;;;;;;;;;;5097671;28;20077;-93
2022/06/26 09:22:53;;;;;;;0.95;0.70;;;;;;;;;;5100711;28;20020;-92
2022/06/26 09:25:19;;;;;;;1.10;0.70;;;;;;;;;;5102446;28;20020;-94
2022/06/26 09:27:45;;;;;;;3.22;0.80;;;;;;;;;;5095359;28;20039;-92
2022/06/26 09:30:11;;;;;;;0.70;0.60;;;;;;;;;;5090162;28;20024;-96
2022/06/26 09:32:37;;;;;;;1.00;0.63;;;;;;;;;;5118105;28;20024;-96
2022/06/26 09:35:03;;;;;;;0.88;0.70;;;;;;;;;;5117950;28;20381;-95
2022/06/26 09:37:37;;;;;;;0.90;0.60;;;;;;;;;;5112152;28;20101;-92
2022/06/26 09:40:04;;;;;;;1.08;0.73;;;;;;;;;;5079114;28;20063;-91
2022/06/26 09:42:32;;;;;;;0.63;0.60;;;;;;;;;;5100994;28;20040;-93
2022/06/26 09:45:00;;;;;;;1.20;0.88;;;;;;;;;;5094932;28;20020;-89
2022/06/26 09:47:27;;;;;;;1.75;0.63;;;;;;;;;;5091208;28;20542;-91
2022/06/26 09:49:54;;;;;;;1.15;0.60;;;;;;;;;;5068895;28;20024;-90
2022/06/26 09:52:21;;;;;;;0.80;0.70;;;;;;;;;;5075591;28;20036;-92
2022/06/26 09:54:48;;;;;;;1.13;0.70;;;;;;;;;;5077163;28;20031;-89
2022/06/26 09:57:14;;;;;;;3.90;0.80;;;;;;;;;;5078803;28;20119;-89
2022/06/26 09:59:41;;;;;;;4.82;0.70;;;;;;;;;;5093342;28;20036;-89
2022/06/26 10:07:44;;;;;;;0.80;0.65;;;;;;;;;;5085996;28;20152;-89
2022/06/26 10:10:10;;;;;;;0.65;0.65;;;;;;;;;;5083322;28;20463;-89
2022/06/26 10:12:36;;;;;;;2.00;0.80;;;;;;;;;;5072550;28;20142;-90
2022/06/26 10:15:03;;;;;;;1.55;1.15;;;;;;;;;;5093068;28;20027;-90
2022/06/26 10:17:47;;;;;;;0.80;0.70;;;;;;;;;;5080256;28;20311;-89
2022/06/26 10:23:10;;;;;;;1.10;1.02;;;;;;;;;;5067657;28;20021;-90
2022/06/26 10:25:40;;;;;;;2.95;1.00;;;;;;;;;;5056431;28;20021;-89
2022/06/26 10:28:06;;;;;;;3.33;1.35;;;;;;;;;;5056397;28;20020;-91
2022/06/26 10:30:32;;;;;;;1.35;1.00;;;;;;;;;;5092200;28;20027;-90
2022/06/26 10:33:07;;;;;;;1.00;0.90;;;;;;;;;;5074262;28;20024;-91
2022/06/26 10:35:41;;;;;;;1.15;1.02;;;;;;;;;;5073476;28;20461;-92
2022/06/26 10:38:21;;;;;;;2.17;1.42;;;;;;;;;;5084035;28;20051;-91
2022/06/26 10:43:50;;;;;;;1.80;1.10;;;;;;;;;;5101846;28;20253;-90
2022/06/26 10:46:16;;;;;;;3.60;0.90;;;;;;;;;;5107011;28;20027;-94
2022/06/26 10:48:54;;;;;;;2.95;0.95;;;;;;;;;;5099827;28;20024;-92
2022/06/26 10:51:24;;;;;;;1.05;0.90;;;;;;;;;;5098846;28;20067;-91
2022/06/26 10:53:50;;;;;;;2.97;0.95;;;;;;;;;;5081942;28;20139;-89
2022/06/26 10:56:16;;;;;;;1.10;0.90;;;;;;;;;;5061546;28;20036;-93
2022/06/26 10:58:46;;;;;;;2.03;0.90;;;;;;;;;;5079006;28;20025;-94
2022/06/26 11:01:13;;;;;;;1.15;0.90;;;;;;;;;;5080982;28;20028;-94
2022/06/26 11:03:40;;;;;;;2.53;1.05;;;;;;;;;;5084550;28;20368;-88
2022/06/26 11:06:10;;;;;;;3.42;1.40;;;;;;;;;;5076883;28;20123;-88
2022/06/26 11:08:38;;;;;;;1.48;1.00;;;;;;;;;;5083255;28;20036;-91
2022/06/26 11:11:04;;;;;;;3.92;0.98;;;;;;;;;;5097705;28;20063;-92
2022/06/26 11:13:30;;;;;;;1.25;1.10;;;;;;;;;;5102850;28;20107;-91
2022/06/26 11:15:57;;;;;;;8.93;1.65;;;;;;;;;;5084259;28;20066;-92
2022/06/26 11:18:23;;;;;;;4.43;1.20;;;;;;;;;;5087348;28;20024;-91
2022/06/26 11:20:50;;;;;;;1.27;0.90;;;;;;;;;;5099655;28;20028;-91
2022/06/26 11:23:21;;;;;;;3.05;1.10;;;;;;;;;;5089224;28;20097;-93
2022/06/26 11:25:54;;;;;;;1.75;1.48;;;;;;;;;;5118175;28;20004;-94
2022/06/26 11:28:20;;;;;;;1.85;1.10;;;;;;;;;;5113271;28;20056;-93
2022/06/26 11:30:48;;;;;;;3.13;1.20;;;;;;;;;;5110087;28;20028;-91
2022/06/26 11:33:22;;;;;;;1.77;1.30;;;;;;;;;;5088755;28;20095;-92
2022/06/26 11:35:48;;;;;;;2.00;1.70;;;;;;;;;;5093115;28;20012;-94
2022/06/26 11:38:16;;;;;;;2.65;1.60;;;;;;;;;;5096665;28;20028;-92
2022/06/26 11:40:43;;;;;;;2.53;1.50;;;;;;;;;;5097394;28;20024;-93
2022/06/26 11:43:10;;;;;;;3.38;1.77;;;;;;;;;;5093448;28;20087;-91
2022/06/26 11:45:37;;;;;;;2.05;1.60;;;;;;;;;;5080082;28;20025;-91
2022/06/26 11:48:06;;;;;;;2.47;1.90;;;;;;;;;;5088992;28;20028;-91
2022/06/26 11:50:34;;;;;;;1.77;1.60;;;;;;;;;;5064857;28;20024;-90
2022/06/26 11:53:01;;;;;;;3.22;1.63;;;;;;;;;;5093420;28;20074;-91
2022/06/26 11:55:27;;;;;;;2.75;1.52;;;;;;;;;;5077893;28;20043;-90
2022/06/26 11:57:54;;;;;;;1.98;1.40;;;;;;;;;;5078113;28;20042;-91
2022/06/26 12:00:21;;;;;;;3.90;1.45;;;;;;;;;;5080373;28;20020;-90
2022/06/26 12:02:50;;;;;;;1.48;1.38;;;;;;;;;;5095621;28;20046;-90
2022/06/26 12:05:20;;;;;;;2.53;1.40;;;;;;;;;;5077577;28;20016;-89
2022/06/26 12:07:48;;;;;;;5.17;1.50;;;;;;;;;;5077156;28;20023;-90
2022/06/26 12:10:34;;;;;;;2.28;1.40;;;;;;;;;;5077144;28;20031;-91
2022/06/26 12:13:00;;;;;;;4.13;1.30;;;;;;;;;;5076515;28;20024;-91
2022/06/26 12:15:29;;;;;;;1.95;1.20;;;;;;;;;;5076281;28;20074;-90
2022/06/26 12:17:56;;;;;;;1.42;1.33;;;;;;;;;;5094113;28;20020;-91
2022/06/26 12:20:22;;;;;;;1.63;1.30;;;;;;;;;;5076298;28;20488;-90
2022/06/26 12:22:50;;;;;;;2.35;1.50;;;;;;;;;;5094432;28;20035;-91
2022/06/26 12:25:49;;;;;;;1.50;1.30;;;;;;;;;;5075917;28;20024;-89
2022/06/26 12:28:22;;;;;;;3.45;1.98;;;;;;;;;;5075541;28;20043;-90
2022/06/26 12:30:48;;;;;;;3.70;2.28;;;;;;;;;;5075867;28;20077;-90
2022/06/26 12:33:14;;;;;;;1.77;1.67;;;;;;;;;;5075938;28;20051;-90
2022/06/26 12:35:41;;;;;;;2.10;1.50;;;;;;;;;;5094762;28;20030;-89
2022/06/26 12:38:07;;;;;;;9.73;1.95;;;;;;;;;;5094137;28;20032;-90
2022/06/26 12:40:34;;;;;;;2.78;1.80;;;;;;;;;;5088360;28;20023;-94
2022/06/26 12:43:01;;;;;;;2.28;1.75;;;;;;;;;;5111794;28;20614;-92
2022/06/26 12:45:27;;;;;;;2.28;1.77;;;;;;;;;;5096153;28;20036;-95
2022/06/26 12:47:53;;;;;;;2.00;1.33;;;;;;;;;;5096760;28;20028;-94
2022/06/26 12:50:19;;;;;;;1.95;1.65;;;;;;;;;;5111334;28;20024;-95
2022/06/26 12:52:45;;;;;;;2.53;1.67;;;;;;;;;;5097479;28;20012;-94
2022/06/26 12:55:12;;;;;;;2.30;1.55;;;;;;;;;;5117023;28;20032;-92
2022/06/26 12:57:38;;;;;;;2.85;1.67;;;;;;;;;;5098292;28;20080;-91
2022/06/26 13:00:05;;;;;;;2.63;1.80;;;;;;;;;;5117414;28;20028;-95
2022/06/26 13:02:31;;;;;;;3.78;1.90;;;;;;;;;;5099379;28;20019;-92
2022/06/26 13:04:57;;;;;;;2.88;1.90;;;;;;;;;;5094621;28;20005;-92
2022/06/26 13:07:23;;;;;;;3.13;1.90;;;;;;;;;;5095647;28;20020;-92
2022/06/26 13:09:49;;;;;;;5.30;1.70;;;;;;;;;;5104755;28;20462;-92
2022/06/26 13:12:15;;;;;;;3.38;2.00;;;;;;;;;;5106644;28;20028;-89
2022/06/26 13:14:48;;;;;;;2.60;1.52;;;;;;;;;;5093645;28;20024;-90
2022/06/26 15:00:08;;;;;;;2.58;1.50;;;;;;;;;;5069191;28;20033;-90
2022/06/26 15:02:34;;;;;;;1.88;1.23;;;;;;;;;;5070450;28;20191;-91
2022/06/26 15:05:02;;;;;;;2.30;1.02;;;;;;;;;;5038128;28;20052;-91
2022/06/26 15:07:29;;;;;;;1.10;1.00;;;;;;;;;;5023898;28;20044;-91
2022/06/26 15:13:50;;;;;;;;;;;;;;;;;;;;;
2022/06/26 17:42:24;;;;;;;1.20;1.10;;;;;;;;;;777264;22;20391;-90
2022/06/26 17:44:50;;;;;;;1.15;1.05;;;;;;;;;;5071707;28;20052;-88
2022/06/26 17:50:08;;;;;;;1.20;1.10;;;;;;;;;;5092992;28;20035;-88
2022/06/26 17:59:19;;;;;;;1.95;1.30;;;;;;;;;;5099638;28;20039;-91
2022/06/26 18:15:10;;;;;;;1.90;1.30;;;;;;;;;;5092303;28;20077;-89
2022/06/26 18:21:10;;;;;;;2.88;1.55;;;;;;;;;;5084152;28;20573;-88
2022/06/26 18:54:56;;;;;;;2.38;1.60;;;;;;;;;;4910039;29;20043;-88
2022/06/26 19:20:01;;;;;;;4.85;1.63;;;;;;;;;;5024658;28;20066;-93
2022/06/26 19:22:27;;;;;;;2.08;1.70;;;;;;;;;;5015269;28;20029;-92
2022/06/26 19:24:54;;;;;;;5.22;1.60;;;;;;;;;;5016528;28;20030;-92
2022/06/26 19:27:20;;;;;;;5.28;1.52;;;;;;;;;;5013394;28;20030;-92
2022/06/26 19:29:47;;;;;;;4.15;2.05;;;;;;;;;;5015472;28;20030;-91
2022/06/26 19:32:14;;;;;;;2.42;1.88;;;;;;;;;;5021047;28;20030;-91
2022/06/26 19:34:41;;;;;;;1.63;1.52;;;;;;;;;;5018355;28;20033;-91
2022/06/26 19:37:07;;;;;;;1.90;1.65;;;;;;;;;;5017676;28;20412;-92
2022/06/26 19:39:35;;;;;;;4.40;1.80;;;;;;;;;;5035453;28;20029;-92
2022/06/26 19:42:21;;;;;;;5.88;2.20;;;;;;;;;;5017467;28;20025;-91
2022/06/26 19:44:51;;;;;;;2.13;1.92;;;;;;;;;;5036603;28;20478;-92
2022/06/26 19:47:18;;;;;;;1.92;1.73;;;;;;;;;;5036890;28;20025;-92
2022/06/26 19:52:30;;;;;;;2.25;2.05;;;;;;;;;;5037395;28;20091;-91
2022/06/26 19:54:56;;;;;;;5.70;2.10;;;;;;;;;;5018171;28;20033;-92
2022/06/26 19:57:25;;;;;;;4.32;1.98;;;;;;;;;;5035272;28;20045;-91
2022/06/26 19:59:52;;;;;;;2.28;1.85;;;;;;;;;;5035435;28;20021;-91
2022/06/26 20:02:20;;;;;;;3.05;1.88;;;;;;;;;;5034292;28;20045;-93
2022/06/26 20:04:48;;;;;;;3.22;2.13;;;;;;;;;;5019108;28;20025;-92
2022/06/26 20:07:14;;;;;;;2.75;1.90;;;;;;;;;;5034931;28;20053;-92
2022/06/26 20:09:41;;;;;;;3.35;2.50;;;;;;;;;;5018681;28;20037;-92
2022/06/26 20:12:07;;;;;;;2.50;2.20;;;;;;;;;;5017732;28;20043;-92
2022/06/26 20:14:36;;;;;;;2.30;2.10;;;;;;;;;;5035429;28;20036;-90
2022/06/26 20:17:03;;;;;;;2.55;2.35;;;;;;;;;;5013768;28;20109;-92
2022/06/26 20:19:29;;;;;;;4.70;2.63;;;;;;;;;;5001996;28;20088;-91
2022/06/26 20:21:55;;;;;;;3.20;2.90;;;;;;;;;;5018309;28;20151;-92
2022/06/26 20:24:22;;;;;;;2.10;1.67;;;;;;;;;;5050839;28;20021;-92
2022/06/26 20:26:48;;;;;;;5.00;3.60;;;;;;;;;;5051425;28;20106;-93
2022/06/26 20:29:14;;;;;;;4.93;3.30;;;;;;;;;;5050131;28;20048;-92
2022/06/26 20:31:40;;;;;;;4.43;3.75;;;;;;;;;;5035301;28;20087;-91
2022/06/26 20:34:09;;;;;;;6.45;4.65;;;;;;;;;;5035230;28;20025;-92
2022/06/26 20:36:36;;;;;;;4.68;3.40;;;;;;;;;;5023951;28;20017;-92
2022/06/26 20:39:03;;;;;;;6.30;4.28;;;;;;;;;;5038916;28;20028;-94
2022/06/26 20:41:29;;;;;;;10.18;4.70;;;;;;;;;;5040318;28;20025;-91
2022/06/26 20:43:56;;;;;;;6.40;5.50;;;;;;;;;;5053202;28;20043;-93
2022/06/26 20:46:22;;;;;;;6.80;4.95;;;;;;;;;;5173841;22;20059;-94
2022/06/26 20:48:51;;;;;;;6.68;5.97;;;;;;;;;;5100971;28;20074;-96
2022/06/26 21:35:34;;;;;;;12.27;6.20;;;;;;;;;;5054070;28;20186;-93
2022/06/26 21:38:01;;;;;;;11.38;5.95;;;;;;;;;;5055641;28;20032;-93